Time;durP1;ratioP1;P1;durP2;ratioP2;P2;SDS_P1;SDS_P2;PMS_P1;PMS_P2;Temp;Humidity;BMP_temperature;BMP_pressure;BME280_temperature;BME280_humidity;BME280_pressure;Samples;Min_cycle;Max_cycle;Signal;HPM_P1;HPM_P2
2021/08/11 00:01:48;;;;;;;13.77;11.90;;;17.00;99.90;;;;;;4921169;29;20209;-70
2021/08/11 00:04:14;;;;;;;11.57;10.37;;;17.00;99.90;;;;;;4923311;29;20216;-70
2021/08/11 00:06:39;;;;;;;13.82;12.27;;;17.00;99.90;;;;;;4939967;29;20503;-70
2021/08/11 00:09:05;;;;;;;12.57;11.03;;;17.10;99.90;;;;;;4940248;29;20175;-70
2021/08/11 00:11:32;;;;;;;13.60;11.80;;;17.00;99.90;;;;;;4939912;29;20205;-70
2021/08/11 00:13:57;;;;;;;12.83;11.03;;;17.00;99.90;;;;;;4939457;29;20216;-70
2021/08/11 00:16:23;;;;;;;12.30;10.97;;;17.00;99.90;;;;;;4938398;29;20500;-70
2021/08/11 00:18:49;;;;;;;14.13;11.60;;;17.00;99.90;;;;;;4939625;29;20175;-70
2021/08/11 00:21:15;;;;;;;12.27;10.90;;;17.00;99.90;;;;;;4939510;29;20524;-70
2021/08/11 00:23:40;;;;;;;13.40;12.00;;;17.00;99.90;;;;;;4922423;29;20434;-72
2021/08/11 00:26:06;;;;;;;16.13;11.83;;;16.90;99.90;;;;;;4937575;29;20179;-71
2021/08/11 00:28:31;;;;;;;14.93;10.67;;;16.90;99.90;;;;;;4939725;29;20261;-70
2021/08/11 00:30:57;;;;;;;12.80;11.10;;;16.90;99.90;;;;;;4939958;29;20189;-70
2021/08/11 00:33:22;;;;;;;10.57;9.57;;;16.90;99.90;;;;;;4939059;29;20206;-70
2021/08/11 00:35:48;;;;;;;13.10;11.43;;;16.90;99.90;;;;;;4938564;29;20170;-71
2021/08/11 00:38:14;;;;;;;13.70;12.30;;;16.90;99.90;;;;;;4938502;29;20182;-70
2021/08/11 00:40:39;;;;;;;13.73;12.30;;;16.90;99.90;;;;;;4938644;29;20779;-70
2021/08/11 00:43:06;;;;;;;14.30;12.50;;;16.90;99.90;;;;;;4939454;29;20198;-71
2021/08/11 00:45:32;;;;;;;13.50;12.10;;;16.80;99.90;;;;;;4937611;29;20197;-71
2021/08/11 00:47:58;;;;;;;16.97;13.07;;;16.80;99.90;;;;;;4938649;29;20568;-71
2021/08/11 00:50:23;;;;;;;15.07;12.73;;;16.80;99.90;;;;;;4938487;29;20505;-70
2021/08/11 00:52:49;;;;;;;17.53;13.50;;;16.70;99.90;;;;;;4939154;29;20226;-70
2021/08/11 00:55:15;;;;;;;14.70;11.93;;;16.70;99.90;;;;;;4937499;29;20637;-70
2021/08/11 00:57:42;;;;;;;13.97;11.80;;;16.70;99.90;;;;;;4939168;29;20178;-70
2021/08/11 01:00:08;;;;;;;14.27;12.73;;;16.70;99.90;;;;;;4939724;29;20433;-71
2021/08/11 01:02:37;;;;;;;16.40;12.40;;;16.60;99.90;;;;;;4938555;29;21030;-71
2021/08/11 01:05:03;;;;;;;16.10;12.43;;;16.60;99.90;;;;;;4937902;29;20415;-71
2021/08/11 01:07:30;;;;;;;15.23;12.20;;;16.50;99.90;;;;;;4937031;29;20426;-71
2021/08/11 01:09:56;;;;;;;14.07;12.30;;;16.60;99.90;;;;;;4938498;29;20414;-70
2021/08/11 01:12:26;;;;;;;14.57;12.13;;;16.60;99.90;;;;;;4921887;29;20496;-71
2021/08/11 01:14:53;;;;;;;14.97;12.40;;;16.60;99.90;;;;;;4938920;29;20406;-71
2021/08/11 01:17:21;;;;;;;13.07;11.63;;;16.60;99.90;;;;;;4937560;29;20417;-70
2021/08/11 01:19:46;;;;;;;14.70;12.80;;;16.60;99.90;;;;;;4940014;29;20422;-70
2021/08/11 01:22:37;;;;;;;14.10;12.13;;;16.50;99.90;;;;;;4942522;29;20411;-70
2021/08/11 01:25:17;;;;;;;14.90;13.30;;;16.50;99.90;;;;;;4942538;29;20430;-70
2021/08/11 01:28:06;;;;;;;15.93;12.60;;;16.50;99.90;;;;;;4936683;29;20425;-70
2021/08/11 01:30:47;;;;;;;14.07;12.57;;;16.50;99.90;;;;;;4938498;29;20440;-70
2021/08/11 01:33:21;;;;;;;16.70;12.53;;;16.50;99.90;;;;;;4938059;29;20508;-70
2021/08/11 01:35:53;;;;;;;15.53;12.50;;;16.60;99.90;;;;;;4937870;29;20417;-70
2021/08/11 01:38:20;;;;;;;15.33;13.50;;;16.60;99.90;;;;;;4936792;29;20418;-71
2021/08/11 01:40:58;;;;;;;16.33;12.67;;;16.60;99.90;;;;;;4921198;29;20430;-69
2021/08/11 01:43:26;;;;;;;17.67;13.77;;;16.60;99.90;;;;;;4937932;29;20442;-70
2021/08/11 01:45:55;;;;;;;15.67;12.50;;;16.50;99.90;;;;;;4937916;29;20414;-70
2021/08/11 01:48:27;;;;;;;15.83;13.97;;;16.40;99.90;;;;;;4936181;29;20442;-70
2021/08/11 01:50:54;;;;;;;18.13;16.23;;;16.40;99.90;;;;;;4937187;29;20417;-70
2021/08/11 01:53:21;;;;;;;15.93;13.37;;;16.40;99.90;;;;;;4920865;29;20297;-70
2021/08/11 01:55:50;;;;;;;17.00;13.87;;;16.40;99.90;;;;;;4937814;29;20421;-70
2021/08/11 01:58:21;;;;;;;17.87;14.17;;;16.50;99.90;;;;;;4938173;29;20813;-70
2021/08/11 02:00:48;;;;;;;18.03;13.90;;;16.40;99.90;;;;;;4935776;29;20465;-70
2021/08/11 02:03:21;;;;;;;16.00;12.50;;;16.40;99.90;;;;;;4937633;29;20449;-70
2021/08/11 02:05:47;;;;;;;15.33;12.83;;;16.40;99.90;;;;;;4937801;29;20398;-70
2021/08/11 02:08:15;;;;;;;18.10;14.37;;;16.50;99.90;;;;;;4937629;29;20508;-70
2021/08/11 02:10:42;;;;;;;16.10;14.20;;;16.50;99.90;;;;;;4936221;29;20458;-70
2021/08/11 02:13:08;;;;;;;21.10;15.30;;;16.50;99.90;;;;;;4936808;29;20552;-71
2021/08/11 02:15:36;;;;;;;18.27;14.67;;;16.40;99.90;;;;;;4919514;29;20438;-70
2021/08/11 02:18:02;;;;;;;20.20;15.20;;;16.30;99.90;;;;;;4937357;29;20476;-70
2021/08/11 02:20:28;;;;;;;21.50;15.53;;;16.20;99.90;;;;;;4935134;29;20418;-70
2021/08/11 02:22:54;;;;;;;19.13;15.20;;;16.30;99.90;;;;;;4918369;29;20483;-70
2021/08/11 02:25:20;;;;;;;20.25;15.00;;;16.30;99.90;;;;;;4917760;29;20912;-71
2021/08/11 02:28:12;;;;;;;19.40;14.70;;;16.30;99.90;;;;;;4918120;29;20290;-70
2021/08/11 02:30:49;;;;;;;17.27;14.50;;;16.30;99.90;;;;;;4918380;29;20842;-71
2021/08/11 02:33:53;;;;;;;18.50;13.30;;;16.30;99.90;;;;;;4936227;29;20876;-71
2021/08/11 02:36:29;;;;;;;18.20;13.57;;;16.30;99.90;;;;;;4859730;29;20434;-71
2021/08/11 02:39:00;;;;;;;17.20;13.03;;;16.30;99.90;;;;;;4859702;29;20468;-70
2021/08/11 02:41:36;;;;;;;18.17;12.93;;;16.30;99.90;;;;;;4844401;29;20414;-71
2021/08/11 02:44:22;;;;;;;16.63;13.27;;;16.30;99.90;;;;;;4859568;29;20445;-71
2021/08/11 02:46:49;;;;;;;20.87;14.10;;;16.40;99.90;;;;;;4859841;29;20422;-70
2021/08/11 02:49:21;;;;;;;18.27;14.13;;;16.30;99.90;;;;;;4859490;29;20442;-71
2021/08/11 02:51:47;;;;;;;19.10;13.70;;;16.20;99.90;;;;;;4859908;29;20541;-70
2021/08/11 02:54:15;;;;;;;19.13;15.30;;;16.10;99.90;;;;;;4859178;29;20994;-71
2021/08/11 02:56:45;;;;;;;20.80;14.80;;;16.10;99.90;;;;;;4859549;29;20429;-70
2021/08/11 02:59:12;;;;;;;18.77;13.77;;;16.00;99.90;;;;;;4859845;29;20462;-70
2021/08/11 03:01:38;;;;;;;19.77;14.13;;;16.00;99.90;;;;;;4859392;29;20426;-71
2021/08/11 03:04:05;;;;;;;19.60;13.80;;;16.00;99.90;;;;;;4858971;29;20468;-72
2021/08/11 03:06:31;;;;;;;16.20;12.80;;;16.00;99.90;;;;;;4859151;29;20456;-70
2021/08/11 03:08:57;;;;;;;17.03;12.30;;;16.00;99.90;;;;;;4859972;29;20422;-71
2021/08/11 03:11:23;;;;;;;16.13;11.53;;;16.10;99.90;;;;;;4885957;29;20194;-70
2021/08/11 03:13:51;;;;;;;17.73;12.10;;;16.00;99.90;;;;;;4934832;29;20490;-70
2021/08/11 03:16:16;;;;;;;16.30;12.53;;;16.00;99.90;;;;;;4936207;29;20569;-70
2021/08/11 03:18:42;;;;;;;14.07;10.77;;;16.00;99.90;;;;;;4936495;29;20553;-70
2021/08/11 03:21:08;;;;;;;15.33;10.43;;;16.00;99.90;;;;;;4936688;29;20296;-70
2021/08/11 03:23:33;;;;;;;21.50;11.17;;;16.10;99.90;;;;;;4918784;29;20232;-71
2021/08/11 03:25:59;;;;;;;14.37;10.47;;;16.10;99.90;;;;;;4934572;29;20182;-71
2021/08/11 03:28:25;;;;;;;13.73;10.80;;;16.20;99.90;;;;;;4936385;29;20178;-70
2021/08/11 03:30:50;;;;;;;12.60;9.50;;;16.10;99.90;;;;;;4936358;29;20179;-71
2021/08/11 03:33:16;;;;;;;12.17;8.73;;;16.20;99.90;;;;;;4936365;29;20221;-70
2021/08/11 03:35:42;;;;;;;11.40;9.40;;;16.20;99.90;;;;;;4934470;29;20182;-70
2021/08/11 03:38:08;;;;;;;11.37;9.27;;;16.30;99.90;;;;;;4936251;29;20189;-70
2021/08/11 03:40:33;;;;;;;11.30;9.33;;;16.30;99.90;;;;;;4935967;29;20411;-71
2021/08/11 03:42:59;;;;;;;12.70;9.10;;;16.30;99.90;;;;;;4936192;29;20202;-70
2021/08/11 03:45:25;;;;;;;13.60;9.90;;;16.40;99.90;;;;;;4935037;29;20182;-70
2021/08/11 03:47:50;;;;;;;10.60;8.50;;;16.30;99.90;;;;;;4935702;29;20186;-71
2021/08/11 03:50:18;;;;;;;11.13;8.40;;;16.30;99.90;;;;;;4935892;29;20414;-71
2021/08/11 03:52:44;;;;;;;12.43;9.40;;;16.40;99.90;;;;;;4936012;29;20214;-71
2021/08/11 03:55:12;;;;;;;13.90;9.00;;;16.40;99.90;;;;;;4936344;29;20776;-70
2021/08/11 03:57:38;;;;;;;12.13;8.57;;;16.50;99.90;;;;;;4934500;29;20269;-70
2021/08/11 04:00:04;;;;;;;13.50;9.93;;;16.50;99.90;;;;;;4936110;29;20505;-70
2021/08/11 04:02:30;;;;;;;12.60;8.70;;;16.60;99.90;;;;;;4935912;29;20202;-70
2021/08/11 04:04:56;;;;;;;10.90;8.90;;;16.60;99.90;;;;;;4939455;29;20404;-70
2021/08/11 04:07:21;;;;;;;11.10;9.30;;;16.60;99.90;;;;;;4934626;29;20669;-70
2021/08/11 04:09:47;;;;;;;15.23;9.93;;;16.70;99.90;;;;;;4922728;29;20668;-70
2021/08/11 04:12:12;;;;;;;13.80;10.98;;;16.70;99.90;;;;;;4919541;29;20433;-69
2021/08/11 04:14:38;;;;;;;14.90;10.60;;;16.80;99.90;;;;;;4918211;29;20566;-69
2021/08/11 04:17:03;;;;;;;14.13;10.73;;;16.80;99.90;;;;;;4919487;29;20207;-70
2021/08/11 04:19:29;;;;;;;12.17;9.97;;;16.80;99.90;;;;;;4920381;29;20195;-70
2021/08/11 04:21:55;;;;;;;18.53;10.80;;;16.90;99.90;;;;;;4920271;29;20214;-70
2021/08/11 04:24:20;;;;;;;20.23;13.33;;;16.90;99.90;;;;;;4918906;29;20199;-70
2021/08/11 04:26:45;;;;;;;20.87;13.70;;;16.90;99.90;;;;;;4917739;29;20203;-70
2021/08/11 04:29:11;;;;;;;23.47;14.23;;;17.00;99.90;;;;;;4918883;29;20214;-70
2021/08/11 04:31:37;;;;;;;19.10;13.33;;;17.00;99.90;;;;;;4917319;29;20211;-70
2021/08/11 04:34:03;;;;;;;19.03;13.17;;;17.00;99.90;;;;;;4916804;29;20654;-70
2021/08/11 04:36:28;;;;;;;22.63;15.27;;;17.00;99.90;;;;;;4916932;29;20529;-70
2021/08/11 04:38:54;;;;;;;20.80;13.60;;;17.00;99.90;;;;;;4919776;29;20423;-70
2021/08/11 04:41:19;;;;;;;15.83;12.43;;;17.00;99.90;;;;;;4920036;29;20222;-70
2021/08/11 04:43:45;;;;;;;19.80;13.93;;;17.00;99.90;;;;;;4920150;29;20609;-71
2021/08/11 04:46:10;;;;;;;21.70;14.83;;;17.00;99.90;;;;;;4919905;29;20415;-70
2021/08/11 04:48:36;;;;;;;21.63;14.43;;;17.00;99.90;;;;;;4922910;29;20182;-71
2021/08/11 04:51:01;;;;;;;24.63;13.60;;;16.90;99.90;;;;;;4936967;29;20193;-71
2021/08/11 04:53:27;;;;;;;15.50;11.33;;;16.90;99.90;;;;;;4938778;29;20210;-70
2021/08/11 04:55:52;;;;;;;14.40;11.43;;;16.80;99.90;;;;;;4937684;29;20268;-70
2021/08/11 04:58:18;;;;;;;13.17;9.77;;;16.70;99.90;;;;;;4939196;29;20250;-71
2021/08/11 05:00:44;;;;;;;13.03;10.20;;;16.70;99.90;;;;;;4933138;29;20241;-71
2021/08/11 05:03:09;;;;;;;11.50;9.63;;;16.80;99.90;;;;;;4926691;29;20561;-71
2021/08/11 05:05:36;;;;;;;11.03;8.57;;;16.80;99.90;;;;;;4938850;29;20410;-71
2021/08/11 05:08:04;;;;;;;12.30;8.93;;;16.90;99.90;;;;;;4938325;29;20648;-71
2021/08/11 05:10:30;;;;;;;13.17;9.90;;;16.90;99.90;;;;;;4921651;29;20522;-71
2021/08/11 05:12:55;;;;;;;14.03;9.37;;;17.10;99.90;;;;;;4920847;29;20494;-71
2021/08/11 05:15:22;;;;;;;11.97;9.20;;;17.10;99.90;;;;;;4933963;29;20178;-71
2021/08/11 05:17:53;;;;;;;10.10;7.87;;;17.20;99.90;;;;;;4920595;29;20208;-70
2021/08/11 05:20:25;;;;;;;8.43;7.50;;;17.20;99.90;;;;;;4921331;29;20438;-71
2021/08/11 05:22:50;;;;;;;9.30;6.70;;;17.20;99.90;;;;;;4936719;29;20792;-71
2021/08/11 05:25:16;;;;;;;9.40;8.23;;;17.30;99.90;;;;;;4933982;29;20431;-71
2021/08/11 05:27:45;;;;;;;10.17;7.93;;;17.30;99.90;;;;;;4920153;29;20194;-71
2021/08/11 05:30:11;;;;;;;8.43;7.57;;;17.40;99.90;;;;;;4919914;29;20546;-70
2021/08/11 05:32:37;;;;;;;8.13;6.67;;;17.40;99.90;;;;;;4919725;29;20529;-70
2021/08/11 05:35:06;;;;;;;12.50;8.43;;;17.50;99.90;;;;;;4919984;29;20425;-73
2021/08/11 05:37:34;;;;;;;10.97;8.57;;;17.50;99.90;;;;;;4922126;29;20175;-71
2021/08/11 05:40:00;;;;;;;9.07;7.97;;;17.60;99.90;;;;;;4938449;29;20422;-70
2021/08/11 05:42:26;;;;;;;8.83;7.60;;;17.60;99.90;;;;;;4938145;29;20421;-70
2021/08/11 05:44:51;;;;;;;8.63;7.33;;;17.60;99.90;;;;;;4937060;29;20710;-70
2021/08/11 05:47:17;;;;;;;10.13;8.60;;;17.70;99.90;;;;;;4937904;29;20215;-71
2021/08/11 05:49:42;;;;;;;9.70;8.07;;;17.70;99.90;;;;;;4936754;29;20174;-71
2021/08/11 05:52:08;;;;;;;9.40;8.40;;;17.70;99.90;;;;;;4937130;29;20460;-71
2021/08/11 05:54:35;;;;;;;12.73;9.53;;;17.80;99.90;;;;;;4935753;29;20533;-70
2021/08/11 05:57:01;;;;;;;13.33;10.47;;;17.80;99.90;;;;;;4937570;29;20951;-70
2021/08/11 05:59:27;;;;;;;12.90;10.50;;;17.80;99.90;;;;;;4937551;29;20878;-70
2021/08/11 06:01:52;;;;;;;15.80;12.40;;;17.80;99.90;;;;;;4937350;29;20430;-70
2021/08/11 06:04:20;;;;;;;14.93;11.50;;;17.80;99.90;;;;;;4936240;29;20221;-70
2021/08/11 06:06:45;;;;;;;17.43;13.03;;;17.80;99.90;;;;;;4936956;29;20185;-70
2021/08/11 06:09:11;;;;;;;16.77;12.90;;;17.90;99.90;;;;;;4938162;29;20405;-70
2021/08/11 06:11:36;;;;;;;16.90;12.77;;;17.90;99.90;;;;;;4936866;29;20249;-70
2021/08/11 06:14:02;;;;;;;18.87;14.67;;;17.90;99.90;;;;;;4937380;29;20209;-70
2021/08/11 06:16:27;;;;;;;17.07;14.60;;;18.00;99.90;;;;;;4935449;29;20216;-69
2021/08/11 06:18:56;;;;;;;18.13;14.10;;;18.00;99.90;;;;;;4919882;29;20493;-70
2021/08/11 06:21:22;;;;;;;18.33;14.93;;;18.00;99.90;;;;;;4937239;29;20185;-69
2021/08/11 06:23:47;;;;;;;22.13;16.03;;;18.10;99.90;;;;;;4937288;29;20434;-69
2021/08/11 06:26:13;;;;;;;24.97;16.20;;;18.20;99.90;;;;;;4931701;29;20439;-70
2021/08/11 06:28:38;;;;;;;22.40;16.50;;;18.20;99.90;;;;;;4918274;29;20194;-71
2021/08/11 06:31:04;;;;;;;23.50;15.67;;;18.30;99.90;;;;;;4918214;29;20305;-71
2021/08/11 06:33:29;;;;;;;23.27;16.57;;;18.30;99.90;;;;;;4935649;29;20213;-70
2021/08/11 06:35:55;;;;;;;22.37;15.40;;;18.30;99.90;;;;;;4937544;29;20204;-70
2021/08/11 06:38:20;;;;;;;23.93;18.23;;;18.30;99.90;;;;;;4904454;29;20186;-70
2021/08/11 06:40:46;;;;;;;21.30;16.20;;;18.30;99.90;;;;;;4918482;29;20181;-70
2021/08/11 06:43:12;;;;;;;23.00;16.17;;;18.40;99.90;;;;;;4917923;29;20569;-70
2021/08/11 06:45:37;;;;;;;19.93;14.83;;;18.50;99.90;;;;;;4917732;29;20181;-69
2021/08/11 06:48:03;;;;;;;21.37;15.17;;;18.50;99.90;;;;;;4919536;29;20207;-70
2021/08/11 06:50:29;;;;;;;21.60;15.70;;;18.70;99.90;;;;;;4918041;29;20677;-70
2021/08/11 06:52:54;;;;;;;23.53;16.40;;;18.70;99.90;;;;;;4917991;29;20463;-70
2021/08/11 06:55:20;;;;;;;22.23;15.53;;;18.80;99.90;;;;;;4918076;29;20182;-70
2021/08/11 06:57:47;;;;;;;21.27;17.20;;;19.00;99.90;;;;;;4918780;29;20167;-70
2021/08/11 07:00:13;;;;;;;21.40;16.67;;;19.00;99.90;;;;;;4917900;29;20193;-71
2021/08/11 07:02:39;;;;;;;26.20;17.37;;;19.10;99.90;;;;;;4917594;29;20431;-71
2021/08/11 07:05:06;;;;;;;22.40;16.80;;;19.20;99.90;;;;;;4917366;29;20422;-70
2021/08/11 07:07:31;;;;;;;19.83;16.80;;;19.30;99.90;;;;;;4917795;29;20182;-71
2021/08/11 07:10:00;;;;;;;25.40;18.53;;;19.40;99.90;;;;;;4918494;29;20833;-71
2021/08/11 07:12:26;;;;;;;23.03;17.60;;;19.50;99.90;;;;;;4917497;29;20203;-71
2021/08/11 07:14:52;;;;;;;21.07;16.67;;;19.50;99.90;;;;;;4917375;29;20434;-71
2021/08/11 07:17:18;;;;;;;20.87;15.43;;;19.60;99.90;;;;;;4917566;29;20769;-71
2021/08/11 07:19:43;;;;;;;23.67;16.20;;;19.70;99.90;;;;;;4924947;29;20418;-71
2021/08/11 07:22:10;;;;;;;22.90;15.90;;;19.80;99.90;;;;;;4936132;29;20178;-71
2021/08/11 07:24:36;;;;;;;16.13;13.63;;;19.80;99.90;;;;;;4936323;29;20174;-71
2021/08/11 07:27:02;;;;;;;18.80;15.47;;;19.80;99.90;;;;;;4937019;29;20414;-71
2021/08/11 07:29:28;;;;;;;21.73;15.40;;;19.80;99.90;;;;;;4936146;29;20895;-71
2021/08/11 07:31:53;;;;;;;19.43;14.80;;;19.80;99.90;;;;;;4937512;29;20504;-70
2021/08/11 07:34:19;;;;;;;17.03;14.43;;;19.60;99.90;;;;;;4936266;29;20237;-71
2021/08/11 07:36:45;;;;;;;16.90;14.73;;;19.70;99.90;;;;;;4937068;29;20170;-71
2021/08/11 07:39:11;;;;;;;15.80;13.97;;;19.80;99.90;;;;;;4919462;29;20476;-71
2021/08/11 07:41:37;;;;;;;19.50;14.10;;;19.80;99.90;;;;;;4917669;29;20465;-71
2021/08/11 07:44:03;;;;;;;17.67;15.77;;;19.90;99.90;;;;;;4936363;29;20462;-71
2021/08/11 07:46:28;;;;;;;18.90;14.40;;;20.00;99.90;;;;;;4936277;29;20669;-71
2021/08/11 07:48:54;;;;;;;20.30;15.60;;;20.10;99.90;;;;;;4936116;29;20628;-71
2021/08/11 07:51:20;;;;;;;19.43;15.70;;;20.10;99.90;;;;;;4934943;29;20186;-71
2021/08/11 07:53:45;;;;;;;18.27;15.97;;;20.20;99.90;;;;;;4936170;29;20221;-71
2021/08/11 07:56:11;;;;;;;16.77;15.07;;;20.20;99.90;;;;;;4936064;29;20174;-70
2021/08/11 07:58:36;;;;;;;16.47;14.77;;;20.10;99.90;;;;;;4919568;29;20628;-70
2021/08/11 08:01:02;;;;;;;15.40;13.57;;;20.00;99.90;;;;;;4936192;29;20256;-70
2021/08/11 08:03:28;;;;;;;17.47;14.30;;;20.00;99.90;;;;;;4934964;29;20521;-70
2021/08/11 08:05:53;;;;;;;14.67;13.17;;;20.10;99.90;;;;;;4936993;29;20190;-70
2021/08/11 08:08:19;;;;;;;13.17;11.77;;;20.10;99.90;;;;;;4936637;29;20198;-70
2021/08/11 08:10:44;;;;;;;10.07;9.07;;;20.20;99.90;;;;;;4935604;29;20202;-71
2021/08/11 08:13:10;;;;;;;8.80;7.90;;;20.30;99.90;;;;;;4934315;29;20210;-70
2021/08/11 08:15:36;;;;;;;9.73;8.73;;;20.40;99.90;;;;;;4939966;29;20174;-70
2021/08/11 08:18:03;;;;;;;8.53;7.73;;;20.50;99.90;;;;;;4939842;29;20178;-70
2021/08/11 08:20:30;;;;;;;10.32;9.25;;;20.60;99.90;;;;;;4938089;29;20436;-70
2021/08/11 08:22:56;;;;;;;9.60;8.60;;;20.70;99.90;;;;;;4921049;29;20198;-70
2021/08/11 08:25:21;;;;;;;8.60;7.80;;;20.70;99.90;;;;;;4922430;29;20427;-70
2021/08/11 08:27:49;;;;;;;8.10;7.30;;;20.70;99.90;;;;;;4920538;29;20410;-70
2021/08/11 08:30:16;;;;;;;7.50;6.77;;;20.80;99.90;;;;;;4920459;29;20657;-71
2021/08/11 08:32:43;;;;;;;8.10;7.30;;;20.80;99.90;;;;;;4920793;29;20490;-71
2021/08/11 08:35:09;;;;;;;9.00;8.20;;;20.90;99.90;;;;;;4919896;29;20493;-71
2021/08/11 08:37:39;;;;;;;7.90;7.17;;;20.90;99.90;;;;;;4920549;29;20406;-71
2021/08/11 08:40:08;;;;;;;8.83;7.93;;;21.10;99.90;;;;;;4921329;29;20171;-71
2021/08/11 08:42:34;;;;;;;9.30;7.63;;;21.20;99.90;;;;;;4922177;29;20446;-71
2021/08/11 08:45:00;;;;;;;8.57;7.77;;;21.30;99.90;;;;;;4921577;29;20414;-71
2021/08/11 08:47:27;;;;;;;8.10;7.33;;;21.40;99.90;;;;;;4921418;29;20439;-71
2021/08/11 08:49:52;;;;;;;8.30;7.40;;;21.40;99.90;;;;;;4920662;29;20414;-71
2021/08/11 08:52:19;;;;;;;7.37;6.67;;;21.40;99.90;;;;;;4921675;29;20541;-71
2021/08/11 08:54:46;;;;;;;9.10;7.27;;;21.40;99.90;;;;;;4920999;29;20195;-71
2021/08/11 08:57:14;;;;;;;6.63;5.90;;;21.60;99.90;;;;;;4920471;29;20415;-71
2021/08/11 08:59:43;;;;;;;6.73;5.60;;;21.60;99.90;;;;;;4920503;29;20494;-71
2021/08/11 09:02:10;;;;;;;7.27;6.67;;;21.70;99.90;;;;;;4920586;29;20430;-71
2021/08/11 09:04:36;;;;;;;7.13;6.50;;;21.80;99.90;;;;;;4921373;29;20477;-70
2021/08/11 09:07:10;;;;;;;7.17;6.47;;;21.90;99.90;;;;;;4921339;29;20395;-70
2021/08/11 09:09:37;;;;;;;7.07;6.37;;;21.90;99.90;;;;;;4921485;29;20185;-70
2021/08/11 09:12:12;;;;;;;7.23;6.03;;;21.90;99.90;;;;;;4920037;29;20629;-71
2021/08/11 09:14:38;;;;;;;7.00;6.33;;;22.00;99.90;;;;;;4921327;29;20423;-70
2021/08/11 09:17:04;;;;;;;10.00;7.40;;;22.00;99.90;;;;;;4919078;29;20535;-71
2021/08/11 09:19:41;;;;;;;7.53;6.63;;;21.90;99.90;;;;;;4919366;29;20412;-70
2021/08/11 09:22:15;;;;;;;6.63;6.03;;;21.90;99.90;;;;;;4920408;29;20582;-70
2021/08/11 09:24:42;;;;;;;7.30;6.60;;;22.00;99.90;;;;;;4921692;29;20951;-70
2021/08/11 09:27:41;;;;;;;7.03;6.43;;;22.20;99.90;;;;;;4929008;29;20422;-70
2021/08/11 09:30:06;;;;;;;8.20;7.40;;;22.40;99.90;;;;;;4923961;29;20430;-70
2021/08/11 09:33:01;;;;;;;6.50;5.90;;;22.60;99.90;;;;;;4939699;29;20546;-70
2021/08/11 09:35:35;;;;;;;6.97;6.27;;;22.80;99.90;;;;;;4936245;29;20254;-70
2021/08/11 09:38:06;;;;;;;7.77;6.50;;;22.70;99.90;;;;;;4919936;29;20414;-70
2021/08/11 09:40:33;;;;;;;8.00;7.20;;;22.80;99.90;;;;;;4903218;29;20434;-71
2021/08/11 09:43:10;;;;;;;7.30;6.70;;;22.90;99.90;;;;;;4918801;29;20450;-71
2021/08/11 09:45:53;;;;;;;7.03;6.43;;;22.90;99.90;;;;;;4919989;29;20436;-70
2021/08/11 09:48:23;;;;;;;7.77;6.97;;;23.00;99.90;;;;;;4919167;29;20890;-70
2021/08/11 09:50:51;;;;;;;8.00;7.27;;;22.80;99.90;;;;;;4919702;29;20426;-70
2021/08/11 09:53:31;;;;;;;8.83;6.73;;;22.80;99.90;;;;;;4918680;29;20463;-70
2021/08/11 09:56:06;;;;;;;8.13;7.43;;;22.80;99.90;;;;;;4901854;29;20494;-70
2021/08/11 09:58:35;;;;;;;8.90;6.93;;;22.80;99.90;;;;;;4919313;29;20602;-70
2021/08/11 10:01:00;;;;;;;8.70;7.90;;;22.60;99.90;;;;;;4917958;29;20442;-70
2021/08/11 10:03:26;;;;;;;8.33;7.63;;;22.70;99.90;;;;;;4919132;29;20226;-71
2021/08/11 10:05:53;;;;;;;7.43;6.83;;;22.80;99.90;;;;;;4919859;29;20765;-70
2021/08/11 10:08:34;;;;;;;7.20;6.60;;;23.00;99.90;;;;;;4918609;29;20222;-71
2021/08/11 10:11:00;;;;;;;8.47;7.57;;;23.00;99.90;;;;;;4918943;29;20415;-71
2021/08/11 10:13:27;;;;;;;7.37;6.60;;;22.80;99.90;;;;;;4918000;29;20538;-71
2021/08/11 10:15:54;;;;;;;8.77;7.20;;;22.80;99.90;;;;;;4919395;29;20514;-71
2021/08/11 10:18:24;;;;;;;7.47;6.80;;;22.80;99.90;;;;;;4901218;29;20436;-71
2021/08/11 10:20:52;;;;;;;7.43;6.83;;;22.80;99.90;;;;;;4919356;29;20479;-69
2021/08/11 10:23:20;;;;;;;7.80;7.10;;;22.90;99.90;;;;;;4918564;29;20447;-70
2021/08/11 10:25:47;;;;;;;7.10;6.40;;;22.80;99.90;;;;;;4918127;29;20955;-70
2021/08/11 10:28:13;;;;;;;7.97;7.27;;;22.90;99.90;;;;;;4920096;29;20438;-70
2021/08/11 10:30:38;;;;;;;8.30;7.60;;;23.00;99.90;;;;;;4918377;29;20430;-70
2021/08/11 10:33:05;;;;;;;8.60;7.80;;;23.20;99.90;;;;;;4917735;29;20273;-70
2021/08/11 10:35:32;;;;;;;7.97;7.37;;;23.20;99.90;;;;;;4917800;29;20701;-70
2021/08/11 10:38:02;;;;;;;9.50;8.60;;;23.20;99.90;;;;;;4919219;29;20427;-70
2021/08/11 10:40:28;;;;;;;8.33;7.63;;;23.00;99.90;;;;;;4918017;29;20501;-70
2021/08/11 10:42:58;;;;;;;8.70;7.97;;;23.10;99.90;;;;;;4917989;29;20475;-71
2021/08/11 10:45:25;;;;;;;8.63;7.93;;;23.40;99.90;;;;;;4927264;29;20283;-71
2021/08/11 10:47:52;;;;;;;8.87;8.07;;;23.50;99.90;;;;;;4937146;29;20433;-70
2021/08/11 10:50:17;;;;;;;9.40;8.60;;;23.50;99.90;;;;;;4936882;29;20442;-69
2021/08/11 10:52:44;;;;;;;8.80;8.00;;;23.50;99.90;;;;;;4932860;29;21027;-69
2021/08/11 10:55:10;;;;;;;8.33;7.53;;;23.70;99.90;;;;;;4936933;29;20175;-70
2021/08/11 10:57:36;;;;;;;8.60;7.80;;;23.80;99.90;;;;;;4936476;29;20418;-70
2021/08/11 11:00:04;;;;;;;8.73;8.02;;;24.00;99.90;;;;;;4936357;29;20460;-70
2021/08/11 11:02:41;;;;;;;7.80;7.10;;;24.00;99.90;;;;;;4935504;29;20309;-72
2021/08/11 11:05:24;;;;;;;9.75;8.85;;;24.00;99.90;;;;;;4917090;29;20426;-70
2021/08/11 11:10:37;;;;;;;7.37;6.70;;;23.80;99.90;;;;;;4918108;29;20791;-70
2021/08/11 11:13:32;;;;;;;6.90;6.40;;;23.70;99.90;;;;;;4917817;29;20475;-70
2021/08/11 11:16:01;;;;;;;7.40;6.40;;;23.60;99.90;;;;;;4917586;29;20766;-69
2021/08/11 11:18:27;;;;;;;7.70;7.00;;;23.30;99.90;;;;;;4900810;29;20411;-70
2021/08/11 11:20:59;;;;;;;8.77;8.07;;;23.20;99.90;;;;;;4917578;29;20610;-70
2021/08/11 11:23:35;;;;;;;8.40;7.70;;;23.10;99.90;;;;;;4917432;29;20277;-70
2021/08/11 11:26:09;;;;;;;8.63;7.70;;;23.10;99.90;;;;;;4920630;29;20950;-70
2021/08/11 11:28:57;;;;;;;7.37;6.77;;;22.90;99.90;;;;;;4919578;29;20488;-70
2021/08/11 11:31:37;;;;;;;7.60;6.90;;;22.90;99.90;;;;;;4919753;29;20744;-71
2021/08/11 11:34:21;;;;;;;6.67;6.07;;;23.00;99.90;;;;;;4901578;29;20205;-71
2021/08/11 11:36:56;;;;;;;7.70;7.10;;;23.20;99.90;;;;;;4936022;29;20776;-71
2021/08/11 11:39:22;;;;;;;8.13;6.90;;;23.20;99.90;;;;;;4936919;29;20414;-71
2021/08/11 11:45:08;;;;;;;7.57;6.87;;;23.30;99.90;;;;;;4859234;29;21042;-71
2021/08/11 11:47:44;;;;;;;7.73;7.00;;;23.00;99.90;;;;;;4840986;29;20800;-70
2021/08/11 11:50:19;;;;;;;7.50;7.00;;;23.20;99.90;;;;;;4843977;29;20819;-70
2021/08/11 11:52:56;;;;;;;7.47;6.80;;;23.20;99.90;;;;;;4844672;29;20469;-70
2021/08/11 11:55:32;;;;;;;6.50;6.00;;;23.10;99.90;;;;;;4844993;29;20423;-70
2021/08/11 11:58:02;;;;;;;6.97;6.23;;;23.30;99.90;;;;;;4864654;29;20821;-70
2021/08/11 12:00:29;;;;;;;6.87;6.27;;;23.40;99.90;;;;;;4863228;29;20437;-70
2021/08/11 12:02:55;;;;;;;7.00;6.47;;;23.30;99.90;;;;;;4862475;29;20423;-70
2021/08/11 12:05:23;;;;;;;6.73;6.23;;;23.30;99.90;;;;;;4863264;29;20268;-69
2021/08/11 12:07:49;;;;;;;6.70;6.20;;;23.30;99.90;;;;;;4861772;29;20933;-70
2021/08/11 12:10:30;;;;;;;6.67;6.07;;;23.30;99.90;;;;;;4863105;29;20496;-71
2021/08/11 12:13:02;;;;;;;6.57;5.97;;;23.20;99.90;;;;;;4862322;29;20492;-70
2021/08/11 12:15:35;;;;;;;5.63;5.10;;;23.00;99.90;;;;;;4862022;29;20969;-69
2021/08/11 12:18:20;;;;;;;5.73;5.23;;;23.10;99.90;;;;;;4863143;29;20437;-70
2021/08/11 12:20:47;;;;;;;5.63;5.13;;;23.00;99.90;;;;;;4881359;29;20919;-71
2021/08/11 12:23:39;;;;;;;6.73;5.93;;;22.90;99.90;;;;;;4939448;29;20572;-70
2021/08/11 12:26:08;;;;;;;6.93;6.10;;;22.90;99.90;;;;;;4936454;29;20774;-70
2021/08/11 12:28:36;;;;;;;5.87;5.37;;;22.90;99.90;;;;;;4938201;29;20430;-70
2021/08/11 12:31:03;;;;;;;6.13;5.53;;;23.00;99.90;;;;;;4939468;29;20430;-70
2021/08/11 12:33:32;;;;;;;7.00;4.90;;;23.00;99.80;;;;;;4939623;29;20557;-70
2021/08/11 12:35:58;;;;;;;5.20;4.80;;;23.00;99.40;;;;;;4939569;29;20505;-70
2021/08/11 12:38:35;;;;;;;6.20;5.60;;;23.00;99.50;;;;;;4937971;29;20428;-70
2021/08/11 12:41:21;;;;;;;6.40;5.43;;;23.00;99.20;;;;;;4939352;29;20425;-70
2021/08/11 12:43:56;;;;;;;7.70;5.43;;;23.00;99.70;;;;;;4939192;29;20445;-70
2021/08/11 12:46:43;;;;;;;5.17;4.73;;;23.00;99.30;;;;;;4939470;29;20500;-70
2021/08/11 12:49:23;;;;;;;5.53;5.07;;;23.20;99.80;;;;;;4937763;29;20431;-70